sensor_id;sensor_type;location;lat;lon;timestamp;P1;durP1;ratioP1;P2;durP2;ratioP2
68821;SDS011;55834;50.870;4.606;2022-07-23T00:02:17;8.87;;;6.40;;
68821;SDS011;55834;50.870;4.606;2022-07-23T00:04:42;10.95;;;7.13;;
68821;SDS011;55834;50.870;4.606;2022-07-23T00:07:08;9.50;;;6.37;;
68821;SDS011;55834;50.870;4.606;2022-07-23T00:09:33;11.30;;;6.20;;
68821;SDS011;55834;50.870;4.606;2022-07-23T00:11:59;7.80;;;5.80;;
68821;SDS011;55834;50.870;4.606;2022-07-23T00:14:24;8.23;;;5.53;;
68821;SDS011;55834;50.870;4.606;2022-07-23T00:16:49;10.73;;;7.20;;
68821;SDS011;55834;50.870;4.606;2022-07-23T00:19:15;6.77;;;5.53;;
68821;SDS011;55834;50.870;4.606;2022-07-23T00:21:40;6.97;;;5.03;;
68821;SDS011;55834;50.870;4.606;2022-07-23T00:24:06;7.03;;;4.82;;
68821;SDS011;55834;50.870;4.606;2022-07-23T00:26:31;8.20;;;6.22;;
68821;SDS011;55834;50.870;4.606;2022-07-23T00:28:57;7.30;;;4.47;;
68821;SDS011;55834;50.870;4.606;2022-07-23T00:31:22;5.23;;;4.03;;
68821;SDS011;55834;50.870;4.606;2022-07-23T00:33:47;10.93;;;7.83;;
68821;SDS011;55834;50.870;4.606;2022-07-23T00:36:13;11.17;;;7.07;;
68821;SDS011;55834;50.870;4.606;2022-07-23T00:38:38;10.80;;;7.23;;
68821;SDS011;55834;50.870;4.606;2022-07-23T00:41:04;8.97;;;7.77;;
68821;SDS011;55834;50.870;4.606;2022-07-23T00:43:29;7.38;;;5.78;;
68821;SDS011;55834;50.870;4.606;2022-07-23T00:45:54;12.07;;;8.43;;
68821;SDS011;55834;50.870;4.606;2022-07-23T00:48:20;10.87;;;8.70;;
68821;SDS011;55834;50.870;4.606;2022-07-23T00:50:46;13.50;;;8.23;;
68821;SDS011;55834;50.870;4.606;2022-07-23T00:53:12;15.20;;;8.80;;
68821;SDS011;55834;50.870;4.606;2022-07-23T00:55:38;14.15;;;9.57;;
68821;SDS011;55834;50.870;4.606;2022-07-23T00:58:03;8.65;;;7.45;;
68821;SDS011;55834;50.870;4.606;2022-07-23T01:00:29;9.85;;;7.15;;
68821;SDS011;55834;50.870;4.606;2022-07-23T01:02:55;10.32;;;7.55;;
68821;SDS011;55834;50.870;4.606;2022-07-23T01:05:21;12.32;;;7.78;;
68821;SDS011;55834;50.870;4.606;2022-07-23T01:07:49;14.70;;;8.88;;
68821;SDS011;55834;50.870;4.606;2022-07-23T01:10:15;9.27;;;7.40;;
68821;SDS011;55834;50.870;4.606;2022-07-23T01:12:56;12.68;;;8.85;;
68821;SDS011;55834;50.870;4.606;2022-07-23T01:15:32;15.32;;;10.00;;
68821;SDS011;55834;50.870;4.606;2022-07-23T01:17:59;15.30;;;9.75;;
68821;SDS011;55834;50.870;4.606;2022-07-23T01:20:25;13.10;;;8.50;;
68821;SDS011;55834;50.870;4.606;2022-07-23T01:22:51;15.65;;;9.70;;
68821;SDS011;55834;50.870;4.606;2022-07-23T01:25:18;14.48;;;9.75;;
68821;SDS011;55834;50.870;4.606;2022-07-23T01:27:43;13.85;;;9.32;;
68821;SDS011;55834;50.870;4.606;2022-07-23T01:30:09;12.60;;;9.43;;
68821;SDS011;55834;50.870;4.606;2022-07-23T01:32:35;13.60;;;9.25;;
68821;SDS011;55834;50.870;4.606;2022-07-23T01:35:01;16.90;;;9.38;;
68821;SDS011;55834;50.870;4.606;2022-07-23T01:37:27;14.18;;;10.10;;
68821;SDS011;55834;50.870;4.606;2022-07-23T01:39:52;12.30;;;8.80;;
68821;SDS011;55834;50.870;4.606;2022-07-23T01:42:17;13.68;;;9.32;;
68821;SDS011;55834;50.870;4.606;2022-07-23T01:44:43;15.82;;;10.40;;
68821;SDS011;55834;50.870;4.606;2022-07-23T01:47:08;11.47;;;9.27;;
68821;SDS011;55834;50.870;4.606;2022-07-23T01:49:33;12.57;;;9.25;;
68821;SDS011;55834;50.870;4.606;2022-07-23T01:51:59;13.37;;;8.40;;
68821;SDS011;55834;50.870;4.606;2022-07-23T01:54:25;14.07;;;8.47;;
68821;SDS011;55834;50.870;4.606;2022-07-23T01:56:54;12.15;;;8.40;;
68821;SDS011;55834;50.870;4.606;2022-07-23T01:59:20;14.05;;;9.63;;
68821;SDS011;55834;50.870;4.606;2022-07-23T02:01:46;18.45;;;10.77;;
68821;SDS011;55834;50.870;4.606;2022-07-23T02:04:11;14.57;;;9.80;;
68821;SDS011;55834;50.870;4.606;2022-07-23T02:06:37;16.63;;;10.47;;
68821;SDS011;55834;50.870;4.606;2022-07-23T02:09:02;12.23;;;9.43;;
68821;SDS011;55834;50.870;4.606;2022-07-23T02:11:27;18.92;;;10.73;;
68821;SDS011;55834;50.870;4.606;2022-07-23T02:13:53;14.95;;;10.88;;
68821;SDS011;55834;50.870;4.606;2022-07-23T02:16:18;14.77;;;10.00;;
68821;SDS011;55834;50.870;4.606;2022-07-23T02:18:44;18.50;;;11.43;;
68821;SDS011;55834;50.870;4.606;2022-07-23T02:21:11;15.23;;;11.00;;
68821;SDS011;55834;50.870;4.606;2022-07-23T02:23:36;18.37;;;9.90;;
68821;SDS011;55834;50.870;4.606;2022-07-23T02:26:01;14.63;;;7.47;;
68821;SDS011;55834;50.870;4.606;2022-07-23T02:28:27;11.43;;;7.53;;
68821;SDS011;55834;50.870;4.606;2022-07-23T02:30:52;14.48;;;8.70;;
68821;SDS011;55834;50.870;4.606;2022-07-23T02:33:17;12.57;;;8.47;;
68821;SDS011;55834;50.870;4.606;2022-07-23T02:35:43;13.43;;;8.68;;
68821;SDS011;55834;50.870;4.606;2022-07-23T02:38:08;11.13;;;8.40;;
68821;SDS011;55834;50.870;4.606;2022-07-23T02:40:33;16.17;;;9.70;;
68821;SDS011;55834;50.870;4.606;2022-07-23T02:42:59;11.83;;;9.10;;
68821;SDS011;55834;50.870;4.606;2022-07-23T02:45:24;17.00;;;10.10;;
68821;SDS011;55834;50.870;4.606;2022-07-23T02:47:50;15.20;;;10.85;;
68821;SDS011;55834;50.870;4.606;2022-07-23T02:50:15;13.27;;;9.87;;
68821;SDS011;55834;50.870;4.606;2022-07-23T02:52:40;14.65;;;10.32;;
68821;SDS011;55834;50.870;4.606;2022-07-23T02:55:06;15.05;;;9.52;;
68821;SDS011;55834;50.870;4.606;2022-07-23T02:57:32;14.70;;;9.25;;
68821;SDS011;55834;50.870;4.606;2022-07-23T02:59:57;12.68;;;8.07;;
68821;SDS011;55834;50.870;4.606;2022-07-23T03:02:23;13.18;;;8.73;;
68821;SDS011;55834;50.870;4.606;2022-07-23T03:04:48;11.63;;;8.85;;
68821;SDS011;55834;50.870;4.606;2022-07-23T03:07:15;14.30;;;10.70;;
68821;SDS011;55834;50.870;4.606;2022-07-23T03:09:41;10.65;;;7.95;;
68821;SDS011;55834;50.870;4.606;2022-07-23T03:12:06;11.70;;;6.93;;
68821;SDS011;55834;50.870;4.606;2022-07-23T03:14:32;11.23;;;6.85;;
68821;SDS011;55834;50.870;4.606;2022-07-23T03:16:57;9.27;;;6.43;;
68821;SDS011;55834;50.870;4.606;2022-07-23T03:21:50;14.17;;;7.97;;
68821;SDS011;55834;50.870;4.606;2022-07-23T03:24:15;13.40;;;8.53;;
68821;SDS011;55834;50.870;4.606;2022-07-23T03:26:42;11.45;;;8.32;;
68821;SDS011;55834;50.870;4.606;2022-07-23T03:29:08;8.38;;;6.25;;
68821;SDS011;55834;50.870;4.606;2022-07-23T03:31:33;10.53;;;6.67;;
68821;SDS011;55834;50.870;4.606;2022-07-23T03:33:59;14.88;;;8.98;;
68821;SDS011;55834;50.870;4.606;2022-07-23T03:36:24;12.03;;;8.90;;
68821;SDS011;55834;50.870;4.606;2022-07-23T03:38:50;14.35;;;9.57;;
68821;SDS011;55834;50.870;4.606;2022-07-23T03:41:15;12.20;;;8.35;;
68821;SDS011;55834;50.870;4.606;2022-07-23T03:43:41;15.57;;;9.68;;
68821;SDS011;55834;50.870;4.606;2022-07-23T03:46:06;16.40;;;11.23;;
68821;SDS011;55834;50.870;4.606;2022-07-23T03:48:32;11.50;;;8.47;;
68821;SDS011;55834;50.870;4.606;2022-07-23T03:50:57;10.50;;;8.50;;
68821;SDS011;55834;50.870;4.606;2022-07-23T03:53:23;15.45;;;11.48;;
68821;SDS011;55834;50.870;4.606;2022-07-23T03:55:48;10.60;;;8.50;;
68821;SDS011;55834;50.870;4.606;2022-07-23T03:58:13;12.70;;;8.87;;
68821;SDS011;55834;50.870;4.606;2022-07-23T04:00:39;13.03;;;7.80;;
68821;SDS011;55834;50.870;4.606;2022-07-23T04:03:04;10.87;;;7.43;;
68821;SDS011;55834;50.870;4.606;2022-07-23T04:05:29;12.37;;;7.23;;
68821;SDS011;55834;50.870;4.606;2022-07-23T04:07:55;13.10;;;9.03;;
68821;SDS011;55834;50.870;4.606;2022-07-23T04:10:20;10.33;;;8.17;;
68821;SDS011;55834;50.870;4.606;2022-07-23T04:12:45;16.50;;;10.45;;
68821;SDS011;55834;50.870;4.606;2022-07-23T04:15:11;14.97;;;9.40;;
68821;SDS011;55834;50.870;4.606;2022-07-23T04:17:36;14.30;;;10.20;;
68821;SDS011;55834;50.870;4.606;2022-07-23T04:20:02;13.57;;;10.50;;
68821;SDS011;55834;50.870;4.606;2022-07-23T04:22:28;12.40;;;8.98;;
68821;SDS011;55834;50.870;4.606;2022-07-23T04:24:53;11.53;;;8.67;;
68821;SDS011;55834;50.870;4.606;2022-07-23T04:27:18;13.23;;;9.53;;
68821;SDS011;55834;50.870;4.606;2022-07-23T04:29:44;15.47;;;11.00;;
68821;SDS011;55834;50.870;4.606;2022-07-23T04:32:09;12.57;;;8.38;;
68821;SDS011;55834;50.870;4.606;2022-07-23T04:34:34;17.63;;;9.37;;
68821;SDS011;55834;50.870;4.606;2022-07-23T04:37:00;13.50;;;9.38;;
68821;SDS011;55834;50.870;4.606;2022-07-23T04:39:25;11.10;;;8.30;;
68821;SDS011;55834;50.870;4.606;2022-07-23T04:41:50;16.07;;;9.73;;
68821;SDS011;55834;50.870;4.606;2022-07-23T04:44:16;15.17;;;9.43;;
68821;SDS011;55834;50.870;4.606;2022-07-23T04:46:41;12.37;;;7.93;;
68821;SDS011;55834;50.870;4.606;2022-07-23T04:49:06;12.23;;;9.27;;
68821;SDS011;55834;50.870;4.606;2022-07-23T04:51:32;14.90;;;10.40;;
68821;SDS011;55834;50.870;4.606;2022-07-23T04:53:57;15.75;;;10.15;;
68821;SDS011;55834;50.870;4.606;2022-07-23T04:56:23;14.80;;;9.68;;
68821;SDS011;55834;50.870;4.606;2022-07-23T04:58:48;14.17;;;9.73;;
68821;SDS011;55834;50.870;4.606;2022-07-23T05:01:13;16.55;;;10.07;;
68821;SDS011;55834;50.870;4.606;2022-07-23T05:03:39;17.67;;;10.87;;
68821;SDS011;55834;50.870;4.606;2022-07-23T05:06:04;12.03;;;7.47;;
68821;SDS011;55834;50.870;4.606;2022-07-23T05:08:30;17.48;;;10.93;;
68821;SDS011;55834;50.870;4.606;2022-07-23T05:10:55;11.27;;;8.93;;
68821;SDS011;55834;50.870;4.606;2022-07-23T05:13:20;14.40;;;10.93;;
68821;SDS011;55834;50.870;4.606;2022-07-23T05:15:46;13.37;;;8.73;;
68821;SDS011;55834;50.870;4.606;2022-07-23T05:18:11;14.05;;;8.80;;
68821;SDS011;55834;50.870;4.606;2022-07-23T05:20:37;12.77;;;8.65;;
68821;SDS011;55834;50.870;4.606;2022-07-23T05:23:03;10.35;;;7.40;;
68821;SDS011;55834;50.870;4.606;2022-07-23T05:25:28;11.98;;;8.23;;
68821;SDS011;55834;50.870;4.606;2022-07-23T05:27:54;12.27;;;7.72;;
68821;SDS011;55834;50.870;4.606;2022-07-23T05:30:19;12.07;;;7.87;;
68821;SDS011;55834;50.870;4.606;2022-07-23T05:32:44;18.08;;;12.05;;
68821;SDS011;55834;50.870;4.606;2022-07-23T05:35:10;12.00;;;9.77;;
68821;SDS011;55834;50.870;4.606;2022-07-23T05:37:36;13.77;;;9.98;;
68821;SDS011;55834;50.870;4.606;2022-07-23T05:40:05;14.05;;;10.00;;
68821;SDS011;55834;50.870;4.606;2022-07-23T05:42:35;10.27;;;7.07;;
68821;SDS011;55834;50.870;4.606;2022-07-23T05:45:02;15.20;;;10.15;;
68821;SDS011;55834;50.870;4.606;2022-07-23T05:47:29;11.90;;;9.02;;
68821;SDS011;55834;50.870;4.606;2022-07-23T05:50:11;13.60;;;9.98;;
68821;SDS011;55834;50.870;4.606;2022-07-23T05:52:37;14.18;;;10.60;;
68821;SDS011;55834;50.870;4.606;2022-07-23T05:55:03;13.50;;;9.85;;
68821;SDS011;55834;50.870;4.606;2022-07-23T05:57:29;12.30;;;9.63;;
68821;SDS011;55834;50.870;4.606;2022-07-23T05:59:54;12.32;;;9.23;;
68821;SDS011;55834;50.870;4.606;2022-07-23T06:02:20;11.90;;;8.57;;
68821;SDS011;55834;50.870;4.606;2022-07-23T06:04:45;11.63;;;7.57;;
68821;SDS011;55834;50.870;4.606;2022-07-23T06:07:11;9.80;;;7.88;;
68821;SDS011;55834;50.870;4.606;2022-07-23T06:09:36;10.60;;;6.70;;
68821;SDS011;55834;50.870;4.606;2022-07-23T06:12:01;9.63;;;6.97;;
68821;SDS011;55834;50.870;4.606;2022-07-23T06:14:27;13.07;;;8.85;;
68821;SDS011;55834;50.870;4.606;2022-07-23T06:16:52;11.00;;;7.20;;
68821;SDS011;55834;50.870;4.606;2022-07-23T06:19:18;9.43;;;6.67;;
68821;SDS011;55834;50.870;4.606;2022-07-23T06:21:43;8.10;;;6.80;;
68821;SDS011;55834;50.870;4.606;2022-07-23T06:24:08;12.27;;;9.33;;
68821;SDS011;55834;50.870;4.606;2022-07-23T06:26:34;8.70;;;6.53;;
68821;SDS011;55834;50.870;4.606;2022-07-23T06:28:59;7.17;;;5.93;;
68821;SDS011;55834;50.870;4.606;2022-07-23T06:31:24;8.05;;;7.25;;
68821;SDS011;55834;50.870;4.606;2022-07-23T06:33:52;9.57;;;6.85;;
68821;SDS011;55834;50.870;4.606;2022-07-23T06:36:17;8.57;;;6.47;;
68821;SDS011;55834;50.870;4.606;2022-07-23T06:38:43;7.32;;;6.22;;
68821;SDS011;55834;50.870;4.606;2022-07-23T06:41:08;8.68;;;6.38;;
68821;SDS011;55834;50.870;4.606;2022-07-23T06:43:33;5.67;;;4.93;;
68821;SDS011;55834;50.870;4.606;2022-07-23T06:45:59;9.50;;;6.20;;
68821;SDS011;55834;50.870;4.606;2022-07-23T06:48:25;8.45;;;6.22;;
68821;SDS011;55834;50.870;4.606;2022-07-23T06:50:51;8.80;;;7.00;;
68821;SDS011;55834;50.870;4.606;2022-07-23T06:53:17;9.27;;;6.63;;
68821;SDS011;55834;50.870;4.606;2022-07-23T06:55:43;9.60;;;6.30;;
68821;SDS011;55834;50.870;4.606;2022-07-23T06:58:08;6.10;;;4.67;;
68821;SDS011;55834;50.870;4.606;2022-07-23T07:00:35;9.45;;;7.07;;
68821;SDS011;55834;50.870;4.606;2022-07-23T07:03:01;8.25;;;6.78;;
68821;SDS011;55834;50.870;4.606;2022-07-23T07:05:27;8.95;;;7.05;;
68821;SDS011;55834;50.870;4.606;2022-07-23T07:07:53;10.10;;;7.10;;
68821;SDS011;55834;50.870;4.606;2022-07-23T07:10:20;10.45;;;7.82;;
68821;SDS011;55834;50.870;4.606;2022-07-23T07:12:45;10.88;;;6.57;;
68821;SDS011;55834;50.870;4.606;2022-07-23T07:15:10;8.17;;;6.33;;
68821;SDS011;55834;50.870;4.606;2022-07-23T07:17:36;11.80;;;7.38;;
68821;SDS011;55834;50.870;4.606;2022-07-23T07:20:03;6.90;;;5.63;;
68821;SDS011;55834;50.870;4.606;2022-07-23T07:22:29;9.50;;;6.80;;
68821;SDS011;55834;50.870;4.606;2022-07-23T07:24:54;7.90;;;6.60;;
68821;SDS011;55834;50.870;4.606;2022-07-23T07:27:20;10.25;;;6.28;;
68821;SDS011;55834;50.870;4.606;2022-07-23T07:32:12;9.13;;;6.87;;
68821;SDS011;55834;50.870;4.606;2022-07-23T07:34:37;6.72;;;5.65;;
68821;SDS011;55834;50.870;4.606;2022-07-23T07:37:02;9.70;;;6.70;;
68821;SDS011;55834;50.870;4.606;2022-07-23T07:39:28;10.35;;;7.40;;
68821;SDS011;55834;50.870;4.606;2022-07-23T07:41:53;9.53;;;6.20;;
68821;SDS011;55834;50.870;4.606;2022-07-23T07:44:18;10.13;;;7.47;;
68821;SDS011;55834;50.870;4.606;2022-07-23T07:46:44;9.63;;;6.13;;
68821;SDS011;55834;50.870;4.606;2022-07-23T07:49:09;8.90;;;6.33;;
68821;SDS011;55834;50.870;4.606;2022-07-23T07:51:35;9.82;;;7.47;;
68821;SDS011;55834;50.870;4.606;2022-07-23T07:54:00;8.98;;;6.03;;
68821;SDS011;55834;50.870;4.606;2022-07-23T07:56:26;9.50;;;5.97;;
68821;SDS011;55834;50.870;4.606;2022-07-23T07:58:52;11.52;;;8.50;;
68821;SDS011;55834;50.870;4.606;2022-07-23T08:01:17;6.80;;;5.38;;
68821;SDS011;55834;50.870;4.606;2022-07-23T08:03:44;8.75;;;6.53;;
68821;SDS011;55834;50.870;4.606;2022-07-23T08:06:10;11.88;;;8.50;;
68821;SDS011;55834;50.870;4.606;2022-07-23T08:08:35;10.90;;;8.73;;
68821;SDS011;55834;50.870;4.606;2022-07-23T08:11:01;9.15;;;7.10;;
68821;SDS011;55834;50.870;4.606;2022-07-23T08:13:26;11.77;;;8.07;;
68821;SDS011;55834;50.870;4.606;2022-07-23T08:15:52;9.70;;;6.87;;
68821;SDS011;55834;50.870;4.606;2022-07-23T08:18:20;7.82;;;6.47;;
68821;SDS011;55834;50.870;4.606;2022-07-23T08:20:45;6.68;;;4.45;;
68821;SDS011;55834;50.870;4.606;2022-07-23T08:23:10;8.90;;;6.43;;
68821;SDS011;55834;50.870;4.606;2022-07-23T08:25:41;10.40;;;5.88;;
68821;SDS011;55834;50.870;4.606;2022-07-23T08:28:08;6.57;;;4.53;;
68821;SDS011;55834;50.870;4.606;2022-07-23T08:30:34;8.75;;;5.93;;
68821;SDS011;55834;50.870;4.606;2022-07-23T08:33:02;10.02;;;7.07;;
68821;SDS011;55834;50.870;4.606;2022-07-23T08:35:31;12.70;;;6.63;;
68821;SDS011;55834;50.870;4.606;2022-07-23T08:37:59;6.30;;;4.07;;
68821;SDS011;55834;50.870;4.606;2022-07-23T08:40:26;6.80;;;3.97;;
68821;SDS011;55834;50.870;4.606;2022-07-23T08:42:53;8.75;;;4.00;;
68821;SDS011;55834;50.870;4.606;2022-07-23T08:45:19;4.45;;;3.35;;
68821;SDS011;55834;50.870;4.606;2022-07-23T08:47:47;7.28;;;5.45;;
68821;SDS011;55834;50.870;4.606;2022-07-23T08:50:17;9.63;;;5.03;;
68821;SDS011;55834;50.870;4.606;2022-07-23T08:52:42;7.13;;;3.78;;
68821;SDS011;55834;50.870;4.606;2022-07-23T08:55:08;6.30;;;4.35;;
68821;SDS011;55834;50.870;4.606;2022-07-23T08:57:34;5.60;;;3.35;;
68821;SDS011;55834;50.870;4.606;2022-07-23T08:59:59;7.90;;;4.78;;
68821;SDS011;55834;50.870;4.606;2022-07-23T09:02:25;6.13;;;3.85;;
68821;SDS011;55834;50.870;4.606;2022-07-23T09:04:51;4.50;;;3.60;;
68821;SDS011;55834;50.870;4.606;2022-07-23T09:07:16;7.70;;;4.95;;
68821;SDS011;55834;50.870;4.606;2022-07-23T09:09:41;4.57;;;2.90;;
68821;SDS011;55834;50.870;4.606;2022-07-23T09:12:08;7.87;;;5.00;;
68821;SDS011;55834;50.870;4.606;2022-07-23T09:14:42;6.95;;;4.80;;
68821;SDS011;55834;50.870;4.606;2022-07-23T09:17:13;5.80;;;4.47;;
68821;SDS011;55834;50.870;4.606;2022-07-23T09:19:40;7.80;;;4.55;;
68821;SDS011;55834;50.870;4.606;2022-07-23T09:22:40;6.47;;;4.57;;
68821;SDS011;55834;50.870;4.606;2022-07-23T09:25:09;6.78;;;4.63;;
68821;SDS011;55834;50.870;4.606;2022-07-23T09:30:13;5.88;;;4.15;;
68821;SDS011;55834;50.870;4.606;2022-07-23T09:32:39;7.43;;;4.40;;
68821;SDS011;55834;50.870;4.606;2022-07-23T09:35:05;5.10;;;3.15;;
68821;SDS011;55834;50.870;4.606;2022-07-23T09:37:31;5.22;;;3.40;;
68821;SDS011;55834;50.870;4.606;2022-07-23T09:40:06;7.38;;;4.43;;
68821;SDS011;55834;50.870;4.606;2022-07-23T09:42:41;5.47;;;3.47;;
68821;SDS011;55834;50.870;4.606;2022-07-23T09:45:20;4.10;;;3.10;;
68821;SDS011;55834;50.870;4.606;2022-07-23T09:47:45;6.33;;;3.70;;
68821;SDS011;55834;50.870;4.606;2022-07-23T09:50:11;4.80;;;3.25;;
68821;SDS011;55834;50.870;4.606;2022-07-23T09:52:48;6.80;;;3.90;;
68821;SDS011;55834;50.870;4.606;2022-07-23T09:55:15;5.70;;;3.25;;
68821;SDS011;55834;50.870;4.606;2022-07-23T09:57:42;4.35;;;3.28;;
68821;SDS011;55834;50.870;4.606;2022-07-23T10:00:15;7.57;;;3.90;;
68821;SDS011;55834;50.870;4.606;2022-07-23T10:02:41;4.50;;;3.53;;
68821;SDS011;55834;50.870;4.606;2022-07-23T10:05:06;7.82;;;3.20;;
68821;SDS011;55834;50.870;4.606;2022-07-23T10:07:33;3.80;;;2.72;;
68821;SDS011;55834;50.870;4.606;2022-07-23T10:10:02;4.85;;;2.60;;
68821;SDS011;55834;50.870;4.606;2022-07-23T10:12:30;5.45;;;3.08;;
68821;SDS011;55834;50.870;4.606;2022-07-23T10:14:56;5.65;;;3.17;;
68821;SDS011;55834;50.870;4.606;2022-07-23T10:17:22;5.32;;;3.22;;
68821;SDS011;55834;50.870;4.606;2022-07-23T10:19:47;5.47;;;3.50;;
68821;SDS011;55834;50.870;4.606;2022-07-23T10:22:14;5.53;;;3.50;;
68821;SDS011;55834;50.870;4.606;2022-07-23T10:24:52;5.65;;;3.42;;
68821;SDS011;55834;50.870;4.606;2022-07-23T10:30:03;6.00;;;3.40;;
68821;SDS011;55834;50.870;4.606;2022-07-23T10:32:45;5.32;;;3.15;;
68821;SDS011;55834;50.870;4.606;2022-07-23T10:37:51;5.53;;;3.30;;
68821;SDS011;55834;50.870;4.606;2022-07-23T10:40:22;4.30;;;3.03;;
68821;SDS011;55834;50.870;4.606;2022-07-23T10:42:49;5.53;;;2.78;;
68821;SDS011;55834;50.870;4.606;2022-07-23T10:47:51;4.50;;;3.55;;
68821;SDS011;55834;50.870;4.606;2022-07-23T10:57:59;5.87;;;4.00;;
68821;SDS011;55834;50.870;4.606;2022-07-23T11:00:26;5.15;;;3.70;;
68821;SDS011;55834;50.870;4.606;2022-07-23T11:02:54;3.30;;;2.55;;
68821;SDS011;55834;50.870;4.606;2022-07-23T11:05:25;4.60;;;2.65;;
68821;SDS011;55834;50.870;4.606;2022-07-23T11:10:35;3.67;;;2.30;;
68821;SDS011;55834;50.870;4.606;2022-07-23T11:13:25;2.58;;;2.38;;
68821;SDS011;55834;50.870;4.606;2022-07-23T11:24:07;2.90;;;1.95;;
68821;SDS011;55834;50.870;4.606;2022-07-23T11:34:45;2.65;;;2.17;;
68821;SDS011;55834;50.870;4.606;2022-07-23T11:40:13;4.13;;;2.85;;
68821;SDS011;55834;50.870;4.606;2022-07-23T11:42:53;3.97;;;2.30;;
68821;SDS011;55834;50.870;4.606;2022-07-23T11:45:21;3.60;;;2.63;;
68821;SDS011;55834;50.870;4.606;2022-07-23T11:47:47;3.20;;;2.55;;
68821;SDS011;55834;50.870;4.606;2022-07-23T11:50:12;3.97;;;2.40;;
68821;SDS011;55834;50.870;4.606;2022-07-23T11:52:38;3.53;;;2.97;;
68821;SDS011;55834;50.870;4.606;2022-07-23T11:55:07;3.33;;;2.20;;
68821;SDS011;55834;50.870;4.606;2022-07-23T11:57:36;2.65;;;1.88;;
68821;SDS011;55834;50.870;4.606;2022-07-23T12:02:37;2.78;;;2.10;;
68821;SDS011;55834;50.870;4.606;2022-07-23T12:05:05;2.10;;;1.90;;
68821;SDS011;55834;50.870;4.606;2022-07-23T12:07:35;3.33;;;2.35;;
68821;SDS011;55834;50.870;4.606;2022-07-23T12:12:46;4.22;;;2.20;;
68821;SDS011;55834;50.870;4.606;2022-07-23T12:15:18;3.25;;;2.50;;
68821;SDS011;55834;50.870;4.606;2022-07-23T12:17:47;4.25;;;2.28;;
68821;SDS011;55834;50.870;4.606;2022-07-23T12:20:15;6.30;;;2.08;;
68821;SDS011;55834;50.870;4.606;2022-07-23T12:22:42;2.88;;;2.25;;
68821;SDS011;55834;50.870;4.606;2022-07-23T12:25:12;3.72;;;2.50;;
68821;SDS011;55834;50.870;4.606;2022-07-23T12:27:38;3.28;;;2.30;;
68821;SDS011;55834;50.870;4.606;2022-07-23T12:32:47;4.18;;;2.10;;
68821;SDS011;55834;50.870;4.606;2022-07-23T12:35:14;2.33;;;1.88;;
68821;SDS011;55834;50.870;4.606;2022-07-23T12:37:40;2.22;;;2.03;;
68821;SDS011;55834;50.870;4.606;2022-07-23T12:40:21;2.15;;;1.92;;
68821;SDS011;55834;50.870;4.606;2022-07-23T12:42:49;2.45;;;2.25;;
68821;SDS011;55834;50.870;4.606;2022-07-23T12:45:16;7.15;;;2.40;;
68821;SDS011;55834;50.870;4.606;2022-07-23T12:53:08;2.50;;;1.67;;
68821;SDS011;55834;50.870;4.606;2022-07-23T12:55:42;2.67;;;1.75;;
68821;SDS011;55834;50.870;4.606;2022-07-23T12:58:13;2.60;;;1.73;;
68821;SDS011;55834;50.870;4.606;2022-07-23T13:00:58;2.25;;;2.00;;
68821;SDS011;55834;50.870;4.606;2022-07-23T13:03:30;2.80;;;1.77;;
68821;SDS011;55834;50.870;4.606;2022-07-23T13:06:04;2.28;;;1.90;;
68821;SDS011;55834;50.870;4.606;2022-07-23T13:08:33;2.00;;;1.70;;
68821;SDS011;55834;50.870;4.606;2022-07-23T13:11:00;3.15;;;2.35;;
68821;SDS011;55834;50.870;4.606;2022-07-23T13:13:27;1.80;;;1.58;;
68821;SDS011;55834;50.870;4.606;2022-07-23T13:15:54;2.30;;;1.80;;
68821;SDS011;55834;50.870;4.606;2022-07-23T13:23:15;4.90;;;2.38;;
68821;SDS011;55834;50.870;4.606;2022-07-23T13:25:41;4.38;;;2.58;;
68821;SDS011;55834;50.870;4.606;2022-07-23T13:28:07;2.63;;;2.28;;
68821;SDS011;55834;50.870;4.606;2022-07-23T13:30:32;6.05;;;2.58;;
68821;SDS011;55834;50.870;4.606;2022-07-23T13:32:58;2.17;;;1.95;;
68821;SDS011;55834;50.870;4.606;2022-07-23T13:35:24;2.63;;;2.42;;
68821;SDS011;55834;50.870;4.606;2022-07-23T13:37:50;2.58;;;2.38;;
68821;SDS011;55834;50.870;4.606;2022-07-23T13:40:15;4.35;;;2.25;;
68821;SDS011;55834;50.870;4.606;2022-07-23T13:42:40;2.45;;;2.25;;
68821;SDS011;55834;50.870;4.606;2022-07-23T13:45:06;2.27;;;2.07;;
68821;SDS011;55834;50.870;4.606;2022-07-23T13:47:32;2.22;;;1.75;;
68821;SDS011;55834;50.870;4.606;2022-07-23T13:49:58;4.78;;;2.15;;
68821;SDS011;55834;50.870;4.606;2022-07-23T13:52:23;2.22;;;1.75;;
68821;SDS011;55834;50.870;4.606;2022-07-23T13:54:49;2.92;;;1.63;;
68821;SDS011;55834;50.870;4.606;2022-07-23T13:57:15;2.45;;;2.22;;
68821;SDS011;55834;50.870;4.606;2022-07-23T13:59:40;5.25;;;2.47;;
68821;SDS011;55834;50.870;4.606;2022-07-23T14:02:06;2.38;;;2.17;;
68821;SDS011;55834;50.870;4.606;2022-07-23T14:04:32;3.45;;;2.58;;
68821;SDS011;55834;50.870;4.606;2022-07-23T14:06:58;2.78;;;2.47;;
68821;SDS011;55834;50.870;4.606;2022-07-23T14:09:23;3.10;;;2.33;;
68821;SDS011;55834;50.870;4.606;2022-07-23T14:11:49;4.32;;;2.42;;
68821;SDS011;55834;50.870;4.606;2022-07-23T14:14:17;4.00;;;2.60;;
68821;SDS011;55834;50.870;4.606;2022-07-23T14:16:43;2.50;;;2.30;;
68821;SDS011;55834;50.870;4.606;2022-07-23T14:19:08;4.47;;;2.40;;
68821;SDS011;55834;50.870;4.606;2022-07-23T14:21:36;2.47;;;2.20;;
68821;SDS011;55834;50.870;4.606;2022-07-23T14:24:02;4.53;;;3.03;;
68821;SDS011;55834;50.870;4.606;2022-07-23T14:26:27;2.83;;;2.63;;
68821;SDS011;55834;50.870;4.606;2022-07-23T14:28:53;4.40;;;2.20;;
68821;SDS011;55834;50.870;4.606;2022-07-23T14:31:18;2.67;;;2.20;;
68821;SDS011;55834;50.870;4.606;2022-07-23T14:33:43;2.97;;;2.10;;
68821;SDS011;55834;50.870;4.606;2022-07-23T14:36:09;5.00;;;2.53;;
68821;SDS011;55834;50.870;4.606;2022-07-23T14:38:34;3.50;;;3.15;;
68821;SDS011;55834;50.870;4.606;2022-07-23T14:40:59;3.10;;;2.37;;
68821;SDS011;55834;50.870;4.606;2022-07-23T14:43:25;2.83;;;2.43;;
68821;SDS011;55834;50.870;4.606;2022-07-23T14:45:50;3.37;;;2.70;;
68821;SDS011;55834;50.870;4.606;2022-07-23T14:48:16;3.38;;;2.42;;
68821;SDS011;55834;50.870;4.606;2022-07-23T14:50:41;2.65;;;2.45;;
68821;SDS011;55834;50.870;4.606;2022-07-23T14:53:06;4.13;;;2.73;;
68821;SDS011;55834;50.870;4.606;2022-07-23T14:55:32;4.05;;;2.72;;
68821;SDS011;55834;50.870;4.606;2022-07-23T14:57:57;2.85;;;2.53;;
68821;SDS011;55834;50.870;4.606;2022-07-23T15:00:23;4.70;;;2.85;;
68821;SDS011;55834;50.870;4.606;2022-07-23T15:02:48;3.92;;;3.17;;
68821;SDS011;55834;50.870;4.606;2022-07-23T15:05:14;3.93;;;2.80;;
68821;SDS011;55834;50.870;4.606;2022-07-23T15:07:39;5.05;;;2.63;;
68821;SDS011;55834;50.870;4.606;2022-07-23T15:10:05;3.60;;;3.30;;
68821;SDS011;55834;50.870;4.606;2022-07-23T15:12:31;4.93;;;3.10;;
68821;SDS011;55834;50.870;4.606;2022-07-23T15:15:05;4.00;;;3.05;;
68821;SDS011;55834;50.870;4.606;2022-07-23T15:21:07;4.10;;;3.67;;
68821;SDS011;55834;50.870;4.606;2022-07-23T15:27:03;4.55;;;3.55;;
68821;SDS011;55834;50.870;4.606;2022-07-23T15:33:07;3.38;;;3.08;;
68821;SDS011;55834;50.870;4.606;2022-07-23T15:38:55;5.15;;;3.20;;
68821;SDS011;55834;50.870;4.606;2022-07-23T15:44:54;4.75;;;3.75;;
68821;SDS011;55834;50.870;4.606;2022-07-23T15:47:31;4.80;;;3.05;;
68821;SDS011;55834;50.870;4.606;2022-07-23T16:18:44;4.72;;;2.95;;
68821;SDS011;55834;50.870;4.606;2022-07-23T16:21:36;6.93;;;3.70;;
68821;SDS011;55834;50.870;4.606;2022-07-23T17:02:46;3.15;;;2.85;;
68821;SDS011;55834;50.870;4.606;2022-07-23T17:05:12;5.43;;;3.87;;
68821;SDS011;55834;50.870;4.606;2022-07-23T17:07:37;6.35;;;3.28;;